Terminal Aerodrome Forecast
Issued by NWS Wichita, KS

Home | Current Version | Previous Version | Text Only | Print | Product List | Glossary Off
Versions: 1 2 3 4 5 6 7 8 9 10 11 12 13 14 15 16 17 18 19 20 21 22 23

000
FTUS43 KICT 231143
TAFICT
TAF
KICT 231143Z 2312/2412 13013KT P6SM SCT020 BKN060
     FM231500 15017G22KT P6SM OVC017
     FM231700 17022G30KT P6SM BKN025
     FM232000 18022G30KT P6SM SCT030=

USA.gov is the U.S. government's official web portal to all federal, state and local government web resources and services.